Time,TemperatureF,DewpointF,PressureIn,WindDirection,WindDirectionDegrees,WindSpeedMPH,WindSpeedGustMPH,Humidity,HourlyPrecipIn,Conditions,Clouds,dailyrainin,SoftwareType,DateUTC
2013-12-30 00:00:00,42.1,40.3,29.55,ESE,112,1.6,3.8,91,0.00,,,0.53,fowsr,2013-12-30 05:00:00,
2013-12-30 00:05:00,41.9,40.3,29.55,NE,45,1.6,3.8,92,0.00,,,0.53,fowsr,2013-12-30 05:05:00,
2013-12-30 00:10:00,42.1,40.5,29.57,North,0,0.0,0.7,92,0.00,,,0.53,fowsr,2013-12-30 05:10:00,
2013-12-30 00:15:00,42.1,40.5,29.58,East,90,1.6,3.1,92,0.00,,,0.53,fowsr,2013-12-30 05:15:00,
2013-12-30 00:20:00,42.1,40.7,29.32,SE,135,1.6,3.8,93,0.00,,,0.53,fowsr,2013-12-30 05:20:00,
2013-12-30 00:25:00,42.1,40.7,29.58,East,90,4.5,6.9,93,0.00,,,0.53,fowsr,2013-12-30 05:25:00,
2013-12-30 00:30:00,42.4,41.1,29.57,East,90,2.2,3.8,93,0.00,,,0.53,fowsr,2013-12-30 05:30:00,
2013-12-30 00:35:00,42.4,41.1,29.57,SE,135,2.2,3.8,93,0.00,,,0.53,fowsr,2013-12-30 05:35:00,
2013-12-30 00:40:00,42.6,41.2,29.58,ENE,67,3.8,6.0,93,0.00,,,0.53,fowsr,2013-12-30 05:40:00,
2013-12-30 00:45:00,42.6,41.0,29.59,ENE,67,3.1,5.4,92,0.00,,,0.53,fowsr,2013-12-30 05:45:00,
2013-12-30 00:50:00,42.6,41.0,29.58,NE,45,3.8,6.0,92,0.00,,,0.53,fowsr,2013-12-30 05:50:00,
2013-12-30 00:55:00,42.6,41.0,29.58,NE,45,2.2,4.5,92,0.00,,,0.53,fowsr,2013-12-30 05:55:00,
2013-12-30 01:00:00,42.6,41.0,29.58,NE,45,1.6,3.1,92,0.00,,,0.53,fowsr,2013-12-30 06:00:00,
2013-12-30 01:05:00,42.4,40.9,29.59,NE,45,3.8,6.0,92,0.00,,,0.53,fowsr,2013-12-30 06:05:00,
2013-12-30 01:10:00,42.4,40.9,29.58,East,90,2.2,6.0,92,0.00,,,0.53,fowsr,2013-12-30 06:10:00,
2013-12-30 01:15:00,42.4,40.9,29.33,NE,45,3.1,4.5,92,0.00,,,0.53,fowsr,2013-12-30 06:15:00,
2013-12-30 01:25:00,42.4,40.9,29.58,East,90,3.1,5.4,92,0.00,,,0.53,fowsr,2013-12-30 06:25:00,
2013-12-30 01:30:00,42.4,40.9,29.58,NE,45,3.8,4.5,92,0.00,,,0.53,fowsr,2013-12-30 06:30:00,
2013-12-30 01:35:00,42.4,40.9,29.57,East,90,3.1,5.4,92,0.00,,,0.53,fowsr,2013-12-30 06:35:00,
2013-12-30 01:40:00,42.4,40.9,29.58,ESE,112,2.2,3.8,92,0.00,,,0.53,fowsr,2013-12-30 06:40:00,
2013-12-30 01:45:00,42.4,40.6,29.58,East,90,2.2,3.8,91,0.00,,,0.53,fowsr,2013-12-30 06:45:00,
2013-12-30 01:50:00,42.4,40.6,29.58,NE,45,1.6,2.2,91,0.00,,,0.53,fowsr,2013-12-30 06:50:00,
2013-12-30 01:55:00,42.3,40.5,29.58,NNW,337,1.6,3.1,91,0.00,,,0.53,fowsr,2013-12-30 06:55:00,
2013-12-30 02:00:00,42.3,40.5,29.58,NE,45,3.8,5.4,91,0.00,,,0.53,fowsr,2013-12-30 07:00:00,
2013-12-30 02:05:00,42.3,40.5,29.58,East,90,3.1,5.4,91,0.00,,,0.53,fowsr,2013-12-30 07:05:00,
2013-12-30 02:10:00,42.3,40.5,29.59,NE,45,2.2,3.8,91,0.00,,,0.53,fowsr,2013-12-30 07:10:00,
2013-12-30 02:15:00,42.1,40.3,29.59,NE,45,3.1,5.4,91,0.00,,,0.53,fowsr,2013-12-30 07:15:00,
2013-12-30 02:20:00,42.1,40.3,29.59,East,90,2.2,3.8,91,0.00,,,0.53,fowsr,2013-12-30 07:20:00,
2013-12-30 02:25:00,41.9,40.1,29.59,NE,45,2.2,3.8,91,0.00,,,0.53,fowsr,2013-12-30 07:25:00,
2013-12-30 02:30:00,41.9,40.3,29.59,NE,45,1.6,2.2,92,0.00,,,0.53,fowsr,2013-12-30 07:30:00,
2013-12-30 02:35:00,42.1,40.5,29.59,North,0,3.8,6.0,92,0.00,,,0.53,fowsr,2013-12-30 07:35:00,
2013-12-30 02:40:00,41.9,40.3,29.59,North,0,3.8,4.5,92,0.00,,,0.53,fowsr,2013-12-30 07:40:00,
2013-12-30 02:45:00,42.1,40.5,29.60,NE,45,3.1,6.0,92,0.00,,,0.53,fowsr,2013-12-30 07:45:00,
2013-12-30 02:50:00,42.1,40.5,29.60,East,90,2.2,4.5,92,0.00,,,0.53,fowsr,2013-12-30 07:50:00,
2013-12-30 02:55:00,42.1,40.5,29.61,NE,45,3.8,6.0,92,0.00,,,0.53,fowsr,2013-12-30 07:55:00,
2013-12-30 03:00:00,42.3,40.7,29.61,NE,45,3.1,6.0,92,0.00,,,0.53,fowsr,2013-12-30 08:00:00,
2013-12-30 03:05:00,42.3,40.7,29.61,North,0,1.6,2.2,92,0.00,,,0.53,fowsr,2013-12-30 08:05:00,
2013-12-30 03:10:00,42.3,40.7,29.61,NE,45,0.7,2.2,92,0.00,,,0.53,fowsr,2013-12-30 08:10:00,
2013-12-30 03:15:00,42.3,40.7,29.61,East,90,0.7,2.2,92,0.00,,,0.53,fowsr,2013-12-30 08:15:00,
2013-12-30 03:20:00,42.3,40.7,29.61,NE,45,3.8,5.4,92,0.00,,,0.53,fowsr,2013-12-30 08:20:00,
2013-12-30 03:25:00,42.3,40.7,29.61,North,0,1.6,2.2,92,0.00,,,0.53,fowsr,2013-12-30 08:25:00,
2013-12-30 03:30:00,42.3,40.7,29.61,East,90,3.1,6.0,92,0.00,,,0.53,fowsr,2013-12-30 08:30:00,
2013-12-30 03:35:00,42.3,40.7,29.61,North,0,2.2,3.8,92,0.00,,,0.53,fowsr,2013-12-30 08:35:00,
2013-12-30 03:40:00,42.3,40.7,29.62,North,0,3.1,4.5,92,0.00,,,0.53,fowsr,2013-12-30 08:40:00,
2013-12-30 03:45:00,42.1,40.5,29.61,NE,45,1.6,2.2,92,0.00,,,0.53,fowsr,2013-12-30 08:45:00,
2013-12-30 03:50:00,42.1,40.5,29.62,NE,45,3.8,5.4,92,0.00,,,0.53,fowsr,2013-12-30 08:50:00,
2013-12-30 03:55:00,42.3,40.7,29.62,North,0,1.6,3.8,92,0.00,,,0.53,fowsr,2013-12-30 08:55:00,
2013-12-30 04:00:00,42.3,40.7,29.62,NE,45,1.6,2.2,92,0.00,,,0.53,fowsr,2013-12-30 09:00:00,
2013-12-30 04:05:00,42.3,40.7,29.62,NE,45,2.2,3.8,92,0.00,,,0.53,fowsr,2013-12-30 09:05:00,
2013-12-30 04:10:00,42.3,40.9,29.62,East,90,3.1,4.5,93,0.00,,,0.53,fowsr,2013-12-30 09:10:00,
2013-12-30 04:15:00,42.3,40.9,29.63,East,90,1.6,3.1,93,0.00,,,0.53,fowsr,2013-12-30 09:15:00,
2013-12-30 04:20:00,42.3,40.9,29.63,North,0,2.2,3.8,93,0.00,,,0.53,fowsr,2013-12-30 09:20:00,
2013-12-30 04:25:00,42.4,41.1,29.63,East,90,3.8,6.9,93,0.00,,,0.53,fowsr,2013-12-30 09:25:00,
2013-12-30 04:30:00,42.4,41.1,29.63,NE,45,1.6,3.1,93,0.00,,,0.53,fowsr,2013-12-30 09:30:00,
2013-12-30 04:35:00,42.4,41.1,29.63,NE,45,2.2,3.8,93,0.00,,,0.53,fowsr,2013-12-30 09:35:00,
2013-12-30 04:40:00,42.4,40.9,29.63,NE,45,2.2,4.5,92,0.00,,,0.53,fowsr,2013-12-30 09:40:00,
2013-12-30 04:45:00,42.4,40.9,29.63,North,0,3.8,6.9,92,0.00,,,0.53,fowsr,2013-12-30 09:45:00,
2013-12-30 04:50:00,42.4,41.1,29.63,NE,45,3.1,4.5,93,0.00,,,0.53,fowsr,2013-12-30 09:50:00,
2013-12-30 04:55:00,42.6,41.0,29.64,North,0,2.2,6.0,92,0.00,,,0.53,fowsr,2013-12-30 09:55:00,
2013-12-30 05:00:00,42.6,41.0,29.64,SE,135,2.2,3.8,92,0.00,,,0.53,fowsr,2013-12-30 10:00:00,
2013-12-30 05:05:00,42.6,41.0,29.65,East,90,1.6,3.1,92,0.00,,,0.53,fowsr,2013-12-30 10:05:00,
2013-12-30 05:10:00,42.6,41.0,29.65,NE,45,3.1,6.0,92,0.00,,,0.53,fowsr,2013-12-30 10:10:00,
2013-12-30 05:15:00,42.6,41.0,29.65,NE,45,2.2,6.0,92,0.00,,,0.53,fowsr,2013-12-30 10:15:00,
2013-12-30 05:20:00,42.6,41.0,29.65,East,90,3.1,5.4,92,0.00,,,0.53,fowsr,2013-12-30 10:20:00,
2013-12-30 05:25:00,42.6,41.0,29.65,East,90,1.6,3.8,92,0.00,,,0.53,fowsr,2013-12-30 10:25:00,
2013-12-30 05:30:00,42.6,41.0,29.66,NW,315,3.8,4.5,92,0.00,,,0.53,fowsr,2013-12-30 10:30:00,
2013-12-30 05:35:00,42.6,41.0,29.66,North,0,3.1,4.5,92,0.00,,,0.53,fowsr,2013-12-30 10:35:00,
2013-12-30 05:40:00,42.8,41.0,29.66,East,90,3.1,6.9,91,0.00,,,0.53,fowsr,2013-12-30 10:40:00,
2013-12-30 05:45:00,43.0,41.4,29.66,East,90,1.6,3.1,92,0.00,,,0.53,fowsr,2013-12-30 10:45:00,
2013-12-30 05:50:00,43.2,41.4,29.67,East,90,3.1,4.5,91,0.00,,,0.53,fowsr,2013-12-30 10:50:00,
2013-12-30 05:55:00,43.3,41.5,29.67,East,90,3.1,4.5,91,0.00,,,0.53,fowsr,2013-12-30 10:55:00,
2013-12-30 06:00:00,43.3,41.5,29.67,North,0,2.2,4.5,91,0.00,,,0.53,fowsr,2013-12-30 11:00:00,
2013-12-30 06:05:00,43.5,41.5,29.67,NE,45,3.1,4.5,90,0.00,,,0.53,fowsr,2013-12-30 11:05:00,
2013-12-30 06:10:00,43.3,41.3,29.67,East,90,3.1,4.5,90,0.00,,,0.53,fowsr,2013-12-30 11:10:00,
2013-12-30 06:15:00,43.2,41.1,29.68,NE,45,0.7,2.2,90,0.00,,,0.53,fowsr,2013-12-30 11:15:00,
2013-12-30 06:20:00,43.2,40.9,29.68,East,90,2.2,4.5,89,0.00,,,0.53,fowsr,2013-12-30 11:20:00,
2013-12-30 06:25:00,43.0,40.8,29.68,ENE,67,3.1,4.5,89,0.00,,,0.52,fowsr,2013-12-30 11:25:00,
2013-12-30 06:30:00,43.0,41.0,29.68,SE,135,1.6,3.1,90,0.00,,,0.52,fowsr,2013-12-30 11:30:00,
2013-12-30 06:35:00,43.0,41.0,29.68,East,90,3.8,6.9,90,0.00,,,0.51,fowsr,2013-12-30 11:35:00,
2013-12-30 06:45:00,43.0,40.8,29.69,East,90,4.5,6.0,89,0.00,,,0.51,fowsr,2013-12-30 11:45:00,
2013-12-30 06:55:00,43.3,40.9,29.69,SE,135,3.8,6.9,88,0.00,,,0.50,fowsr,2013-12-30 11:55:00,
2013-12-30 07:00:00,43.3,40.7,29.69,East,90,3.1,6.0,87,0.00,,,0.48,fowsr,2013-12-30 12:00:00,
2013-12-30 07:05:00,43.2,40.7,29.69,East,90,3.8,5.4,88,0.00,,,0.48,fowsr,2013-12-30 12:05:00,
2013-12-30 07:10:00,43.0,40.5,29.69,East,90,3.8,7.6,88,0.00,,,0.47,fowsr,2013-12-30 12:10:00,
2013-12-30 07:15:00,43.0,40.5,29.69,East,90,3.8,5.4,88,0.00,,,0.47,fowsr,2013-12-30 12:15:00,
2013-12-30 07:20:00,42.8,40.4,29.69,East,90,3.1,4.5,88,0.00,,,0.47,fowsr,2013-12-30 12:20:00,
2013-12-30 07:25:00,42.8,40.4,29.69,East,90,2.2,3.1,88,0.00,,,0.46,fowsr,2013-12-30 12:25:00,
2013-12-30 07:30:00,42.8,40.6,29.69,NE,45,2.2,3.8,89,0.00,,,0.46,fowsr,2013-12-30 12:30:00,
2013-12-30 07:35:00,42.8,40.6,29.69,East,90,3.1,4.5,89,0.00,,,0.45,fowsr,2013-12-30 12:35:00,
2013-12-30 07:40:00,42.8,40.6,29.69,East,90,2.2,3.8,89,0.00,,,0.45,fowsr,2013-12-30 12:40:00,
2013-12-30 07:45:00,43.0,40.8,29.70,East,90,3.1,4.5,89,0.00,,,0.45,fowsr,2013-12-30 12:45:00,
2013-12-30 07:50:00,43.0,41.0,29.70,East,90,1.6,3.8,90,0.00,,,0.45,fowsr,2013-12-30 12:50:00,
2013-12-30 07:55:00,43.2,41.1,29.70,East,90,2.2,3.8,90,0.00,,,0.44,fowsr,2013-12-30 12:55:00,
2013-12-30 08:00:00,43.3,41.1,29.70,East,90,3.1,4.5,89,0.00,,,0.44,fowsr,2013-12-30 13:00:00,
2013-12-30 08:05:00,43.3,41.1,29.71,SE,135,2.2,3.8,89,0.00,,,0.44,fowsr,2013-12-30 13:05:00,
2013-12-30 08:10:00,43.5,41.1,29.71,ENE,67,3.8,6.9,88,0.00,,,0.44,fowsr,2013-12-30 13:10:00,
2013-12-30 08:15:00,43.7,41.0,29.71,East,90,3.1,5.4,87,0.00,,,0.44,fowsr,2013-12-30 13:15:00,
2013-12-30 08:20:00,43.9,41.2,29.72,East,90,3.8,6.0,87,0.00,,,0.44,fowsr,2013-12-30 13:20:00,
2013-12-30 08:30:00,43.9,41.0,29.72,East,90,1.6,3.1,86,0.00,,,0.43,fowsr,2013-12-30 13:30:00,
2013-12-30 08:35:00,43.9,41.0,29.73,NE,45,0.7,3.1,86,0.00,,,0.43,fowsr,2013-12-30 13:35:00,
2013-12-30 08:40:00,43.7,40.8,29.73,East,90,1.6,3.1,86,0.00,,,0.43,fowsr,2013-12-30 13:40:00,
2013-12-30 08:45:00,43.7,40.8,29.73,East,90,2.2,3.8,86,0.00,,,0.43,fowsr,2013-12-30 13:45:00,
2013-12-30 08:50:00,43.7,41.0,29.73,NE,45,2.2,3.1,87,0.00,,,0.43,fowsr,2013-12-30 13:50:00,
2013-12-30 08:55:00,43.7,41.0,29.73,East,90,0.7,1.6,87,0.00,,,0.43,fowsr,2013-12-30 13:55:00,
2013-12-30 09:00:00,43.7,41.0,29.73,East,90,2.2,3.8,87,0.00,,,0.43,fowsr,2013-12-30 14:00:00,
2013-12-30 09:05:00,43.9,41.0,29.73,East,90,0.7,1.6,86,0.00,,,0.43,fowsr,2013-12-30 14:05:00,
2013-12-30 09:10:00,43.9,41.0,29.73,SE,135,1.6,3.1,86,0.00,,,0.43,fowsr,2013-12-30 14:10:00,
2013-12-30 09:15:00,43.9,41.0,29.74,SE,135,2.2,3.8,86,0.00,,,0.43,fowsr,2013-12-30 14:15:00,
2013-12-30 09:20:00,43.9,41.0,29.74,East,90,1.6,3.1,86,0.00,,,0.43,fowsr,2013-12-30 14:20:00,
2013-12-30 09:25:00,43.9,41.0,29.74,East,90,0.0,2.2,86,0.00,,,0.43,fowsr,2013-12-30 14:25:00,
2013-12-30 09:30:00,44.1,41.2,29.74,East,90,0.7,2.2,86,0.00,,,0.43,fowsr,2013-12-30 14:30:00,
2013-12-30 09:40:00,44.2,41.3,29.74,North,0,0.7,2.2,86,0.00,,,0.43,fowsr,2013-12-30 14:40:00,
2013-12-30 09:45:00,44.4,41.5,29.74,NE,45,0.0,1.6,86,0.00,,,0.43,fowsr,2013-12-30 14:45:00,
2013-12-30 09:50:00,44.8,41.4,29.74,NE,45,1.6,3.1,84,0.00,,,0.43,fowsr,2013-12-30 14:50:00,
2013-12-30 09:55:00,45.1,41.6,29.74,East,90,1.6,3.1,83,0.00,,,0.43,fowsr,2013-12-30 14:55:00,
2013-12-30 10:00:00,45.3,41.5,29.74,ESE,112,3.8,6.0,82,0.00,,,0.43,fowsr,2013-12-30 15:00:00,
2013-12-30 10:05:00,45.3,41.3,29.74,NE,45,4.5,5.4,81,0.00,,,0.43,fowsr,2013-12-30 15:05:00,
2013-12-30 10:10:00,45.3,41.3,29.74,East,90,2.2,4.5,81,0.00,,,0.43,fowsr,2013-12-30 15:10:00,
2013-12-30 10:15:00,45.1,41.1,29.75,East,90,1.6,3.1,81,0.00,,,0.43,fowsr,2013-12-30 15:15:00,
2013-12-30 10:20:00,45.1,41.3,29.75,East,90,2.2,3.8,82,0.00,,,0.43,fowsr,2013-12-30 15:20:00,
2013-12-30 10:25:00,45.0,41.1,29.75,North,0,2.2,3.8,82,0.00,,,0.43,fowsr,2013-12-30 15:25:00,
2013-12-30 10:30:00,45.0,41.1,29.75,NE,45,2.2,3.8,82,0.00,,,0.43,fowsr,2013-12-30 15:30:00,
2013-12-30 10:35:00,45.0,41.1,29.75,NE,45,4.5,6.9,82,0.00,,,0.43,fowsr,2013-12-30 15:35:00,
2013-12-30 10:40:00,45.1,41.3,29.75,North,0,2.2,4.5,82,0.00,,,0.43,fowsr,2013-12-30 15:40:00,
2013-12-30 10:45:00,45.1,41.6,29.75,NE,45,1.6,3.8,83,0.00,,,0.43,fowsr,2013-12-30 15:45:00,
2013-12-30 10:50:00,45.1,41.6,29.75,East,90,1.6,3.1,83,0.00,,,0.41,fowsr,2013-12-30 15:50:00,
2013-12-30 10:55:00,45.0,41.4,29.75,East,90,1.6,3.1,83,0.00,,,0.41,fowsr,2013-12-30 15:55:00,
2013-12-30 11:00:00,44.8,41.4,29.76,East,90,2.2,3.1,84,0.00,,,0.41,fowsr,2013-12-30 16:00:00,
2013-12-30 11:05:00,44.6,41.3,29.76,East,90,0.7,1.6,84,0.00,,,0.41,fowsr,2013-12-30 16:05:00,
2013-12-30 11:10:00,44.6,41.5,29.76,East,90,2.2,3.8,85,0.00,,,0.41,fowsr,2013-12-30 16:10:00,
2013-12-30 11:15:00,44.4,41.3,29.76,NE,45,3.1,4.5,85,0.00,,,0.41,fowsr,2013-12-30 16:15:00,
2013-12-30 11:20:00,44.4,41.3,29.76,NE,45,0.0,0.7,85,0.00,,,0.41,fowsr,2013-12-30 16:20:00,
2013-12-30 11:25:00,44.4,41.3,29.76,North,0,1.6,3.1,85,0.00,,,0.40,fowsr,2013-12-30 16:25:00,
2013-12-30 11:35:00,44.6,41.3,29.76,East,90,1.6,3.8,84,0.00,,,0.39,fowsr,2013-12-30 16:35:00,
2013-12-30 11:40:00,44.6,41.0,29.76,NE,45,2.2,3.1,83,0.00,,,0.38,fowsr,2013-12-30 16:40:00,
2013-12-30 11:45:00,44.6,41.0,29.76,East,90,3.1,4.5,83,0.00,,,0.38,fowsr,2013-12-30 16:45:00,
2013-12-30 11:50:00,44.6,41.0,29.76,East,90,3.1,4.5,83,0.00,,,0.37,fowsr,2013-12-30 16:50:00,
2013-12-30 11:55:00,44.6,41.0,29.75,SE,135,2.2,3.8,83,0.00,,,0.35,fowsr,2013-12-30 16:55:00,
2013-12-30 12:00:00,44.8,41.2,29.75,East,90,1.6,3.1,83,0.00,,,0.34,fowsr,2013-12-30 17:00:00,
2013-12-30 12:05:00,45.0,41.4,29.75,East,90,2.2,4.5,83,0.00,,,0.34,fowsr,2013-12-30 17:05:00,
2013-12-30 12:10:00,45.1,41.3,29.76,SE,135,1.6,3.1,82,0.00,,,0.33,fowsr,2013-12-30 17:10:00,
2013-12-30 12:15:00,45.3,41.3,29.76,WSW,247,1.6,3.1,81,0.00,,,0.33,fowsr,2013-12-30 17:15:00,
2013-12-30 12:20:00,45.5,41.2,29.76,South,180,2.2,7.6,80,0.00,,,0.32,fowsr,2013-12-30 17:20:00,
2013-12-30 12:25:00,45.5,41.0,29.75,East,90,2.2,4.5,79,0.00,,,0.31,fowsr,2013-12-30 17:25:00,
2013-12-30 12:35:00,45.7,41.1,29.75,SSE,157,6.0,7.6,79,0.00,,,0.28,fowsr,2013-12-30 17:35:00,
2013-12-30 12:40:00,45.9,41.3,29.76,SSW,202,4.5,6.0,79,0.00,,,0.26,fowsr,2013-12-30 17:40:00,
2013-12-30 12:45:00,45.7,41.1,29.76,East,90,3.1,6.0,79,0.00,,,0.25,fowsr,2013-12-30 17:45:00,
2013-12-30 12:50:00,45.5,41.0,29.76,SE,135,1.6,3.8,79,0.00,,,0.24,fowsr,2013-12-30 17:50:00,
2013-12-30 12:55:00,45.1,40.6,29.76,East,90,1.6,3.1,79,0.00,,,0.22,fowsr,2013-12-30 17:55:00,
2013-12-30 13:00:00,45.0,40.4,29.76,East,90,3.8,6.0,79,0.00,,,0.21,fowsr,2013-12-30 18:00:00,
2013-12-30 13:05:00,44.8,40.0,29.77,East,90,2.2,3.8,78,0.00,,,0.20,fowsr,2013-12-30 18:05:00,
2013-12-30 13:10:00,44.8,39.8,29.77,South,180,3.8,6.9,77,0.00,,,0.19,fowsr,2013-12-30 18:10:00,
2013-12-30 13:15:00,44.8,39.8,29.77,East,90,2.2,5.4,77,0.00,,,0.18,fowsr,2013-12-30 18:15:00,
2013-12-30 13:20:00,45.1,39.6,29.77,SE,135,2.2,4.5,75,0.00,,,0.17,fowsr,2013-12-30 18:20:00,
2013-12-30 13:25:00,45.1,39.1,29.77,SE,135,3.8,6.9,73,0.00,,,0.15,fowsr,2013-12-30 18:25:00,
2013-12-30 13:30:00,45.0,39.0,29.77,SE,135,2.2,3.8,73,0.00,,,0.13,fowsr,2013-12-30 18:30:00,
2013-12-30 13:35:00,45.0,38.7,29.77,North,0,3.1,5.4,72,0.00,,,0.12,fowsr,2013-12-30 18:35:00,
2013-12-30 13:40:00,45.0,38.4,29.78,South,180,2.2,4.5,71,0.00,,,0.11,fowsr,2013-12-30 18:40:00,
2013-12-30 13:45:00,44.6,38.1,29.77,NW,315,3.8,4.5,71,0.00,,,0.11,fowsr,2013-12-30 18:45:00,
2013-12-30 13:50:00,44.6,37.8,29.77,South,180,4.5,7.6,70,0.00,,,0.09,fowsr,2013-12-30 18:50:00,
2013-12-30 13:55:00,44.4,37.9,29.77,SE,135,2.2,4.5,71,0.00,,,0.09,fowsr,2013-12-30 18:55:00,
2013-12-30 14:00:00,44.2,37.2,29.77,West,270,3.1,6.0,69,0.00,,,0.08,fowsr,2013-12-30 19:00:00,
2013-12-30 14:05:00,44.2,37.0,29.77,SE,135,2.2,4.5,68,0.00,,,0.08,fowsr,2013-12-30 19:05:00,
2013-12-30 14:10:00,43.9,36.4,29.78,West,270,2.2,3.8,67,0.00,,,0.07,fowsr,2013-12-30 19:10:00,
2013-12-30 14:15:00,43.7,36.2,29.78,South,180,4.5,8.3,67,0.00,,,0.07,fowsr,2013-12-30 19:15:00,
2013-12-30 14:20:00,43.5,36.0,29.78,SE,135,2.2,3.8,67,0.00,,,0.06,fowsr,2013-12-30 19:20:00,
2013-12-30 14:25:00,43.3,35.8,29.78,East,90,1.6,3.1,67,0.00,,,0.06,fowsr,2013-12-30 19:25:00,
2013-12-30 14:30:00,43.2,35.7,29.79,South,180,3.8,9.2,67,0.00,,,0.05,fowsr,2013-12-30 19:30:00,
2013-12-30 14:35:00,43.0,35.5,29.80,South,180,2.2,4.5,67,0.00,,,0.05,fowsr,2013-12-30 19:35:00,
2013-12-30 14:40:00,42.8,35.3,29.80,East,90,3.1,5.4,67,0.00,,,0.04,fowsr,2013-12-30 19:40:00,
2013-12-30 14:45:00,42.6,35.4,29.81,East,90,2.2,4.5,68,0.00,,,0.04,fowsr,2013-12-30 19:45:00,
2013-12-30 14:50:00,42.4,35.5,29.81,NE,45,5.4,9.2,69,0.00,,,0.02,fowsr,2013-12-30 19:50:00,
2013-12-30 14:55:00,42.3,35.1,29.82,SSW,202,3.1,5.4,68,0.00,,,0.02,fowsr,2013-12-30 19:55:00,
2013-12-30 15:00:00,42.3,35.1,29.82,ESE,112,2.2,6.9,68,0.00,,,0.02,fowsr,2013-12-30 20:00:00,
2013-12-30 15:05:00,42.1,34.9,29.82,SSW,202,3.8,6.0,68,0.00,,,0.02,fowsr,2013-12-30 20:05:00,
2013-12-30 15:10:00,41.9,34.7,29.82,ESE,112,3.1,5.4,68,0.00,,,0.02,fowsr,2013-12-30 20:10:00,
2013-12-30 15:15:00,41.7,34.6,29.82,West,270,2.2,4.5,68,0.00,,,0.02,fowsr,2013-12-30 20:15:00,
2013-12-30 15:20:00,41.5,34.4,29.82,South,180,3.1,7.6,68,0.00,,,0.02,fowsr,2013-12-30 20:20:00,
2013-12-30 15:25:00,41.5,34.1,29.82,East,90,3.1,6.9,67,0.00,,,0.02,fowsr,2013-12-30 20:25:00,
2013-12-30 15:30:00,41.4,33.7,29.83,NW,315,2.2,5.4,66,0.00,,,0.02,fowsr,2013-12-30 20:30:00,
2013-12-30 15:35:00,41.2,33.5,29.82,NE,45,4.5,7.6,66,0.00,,,0.02,fowsr,2013-12-30 20:35:00,
2013-12-30 15:40:00,41.2,33.3,29.83,East,90,3.8,5.4,65,0.00,,,0.02,fowsr,2013-12-30 20:40:00,
2013-12-30 15:45:00,41.0,33.1,29.83,SE,135,3.1,4.5,65,0.00,,,0.02,fowsr,2013-12-30 20:45:00,
2013-12-30 15:50:00,40.8,33.2,29.84,SE,135,3.1,6.9,66,0.00,,,0.02,fowsr,2013-12-30 20:50:00,
2013-12-30 15:55:00,40.8,33.2,29.85,South,180,3.8,8.3,66,0.00,,,0.02,fowsr,2013-12-30 20:55:00,
2013-12-30 16:00:00,40.6,32.7,29.85,SSE,157,4.5,9.2,65,0.00,,,0.01,fowsr,2013-12-30 21:00:00,
2013-12-30 16:05:00,40.5,32.6,29.85,NE,45,2.2,3.8,65,0.00,,,0.01,fowsr,2013-12-30 21:05:00,
2013-12-30 16:10:00,40.5,32.8,29.84,East,90,4.5,7.6,66,0.00,,,0.01,fowsr,2013-12-30 21:10:00,
2013-12-30 16:15:00,40.3,32.7,29.84,SE,135,2.2,4.5,66,0.00,,,0.01,fowsr,2013-12-30 21:15:00,
2013-12-30 16:20:00,40.3,32.7,29.85,South,180,4.5,6.9,66,0.00,,,0.01,fowsr,2013-12-30 21:20:00,
2013-12-30 16:25:00,40.1,32.2,29.85,South,180,3.1,6.9,65,0.00,,,0.01,fowsr,2013-12-30 21:25:00,
2013-12-30 16:30:00,39.9,32.1,29.85,SW,225,3.8,6.9,65,0.00,,,0.01,fowsr,2013-12-30 21:30:00,
2013-12-30 16:35:00,39.9,32.1,29.86,SSE,157,6.0,11.4,65,0.00,,,0.01,fowsr,2013-12-30 21:35:00,
2013-12-30 16:40:00,39.7,32.2,29.86,SE,135,3.1,7.6,66,0.00,,,0.01,fowsr,2013-12-30 21:40:00,
2013-12-30 16:45:00,39.7,32.4,29.85,East,90,2.2,4.5,67,0.00,,,0.01,fowsr,2013-12-30 21:45:00,
2013-12-30 16:50:00,39.6,32.0,29.86,East,90,3.8,7.6,66,0.00,,,0.01,fowsr,2013-12-30 21:50:00,
2013-12-30 16:55:00,39.6,32.0,29.86,SE,135,1.6,3.1,66,0.00,,,0.01,fowsr,2013-12-30 21:55:00,
2013-12-30 17:00:00,39.6,32.0,29.86,SW,225,5.4,7.6,66,0.00,,,0.01,fowsr,2013-12-30 22:00:00,
2013-12-30 17:05:00,39.4,31.8,29.86,South,180,4.5,6.0,66,0.00,,,0.01,fowsr,2013-12-30 22:05:00,
2013-12-30 17:10:00,39.4,31.8,29.86,East,90,3.1,5.4,66,0.00,,,0.01,fowsr,2013-12-30 22:10:00,
2013-12-30 17:15:00,39.2,31.1,29.87,East,90,3.8,6.0,64,0.00,,,0.01,fowsr,2013-12-30 22:15:00,
2013-12-30 17:20:00,39.0,30.9,29.87,NE,45,2.2,4.5,64,0.00,,,0.01,fowsr,2013-12-30 22:20:00,
2013-12-30 17:25:00,39.0,30.9,29.87,South,180,3.8,7.6,64,0.00,,,0.01,fowsr,2013-12-30 22:25:00,
2013-12-30 17:30:00,38.8,30.2,29.87,East,90,2.2,4.5,62,0.00,,,0.01,fowsr,2013-12-30 22:30:00,
2013-12-30 17:35:00,38.7,29.8,29.87,South,180,3.1,7.6,61,0.00,,,0.01,fowsr,2013-12-30 22:35:00,
2013-12-30 17:40:00,38.5,29.6,29.87,South,180,2.2,4.5,61,0.00,,,0.00,fowsr,2013-12-30 22:40:00,
2013-12-30 17:45:00,38.5,30.2,29.87,South,180,3.1,6.0,63,0.00,,,0.00,fowsr,2013-12-30 22:45:00,
2013-12-30 17:50:00,38.5,29.9,29.87,South,180,2.2,9.8,62,0.00,,,0.00,fowsr,2013-12-30 22:50:00,
2013-12-30 17:55:00,38.5,29.9,29.87,NE,45,1.6,3.8,62,0.00,,,0.00,fowsr,2013-12-30 22:55:00,
2013-12-30 18:00:00,38.3,30.0,29.87,West,270,1.6,3.1,63,0.00,,,0.00,fowsr,2013-12-30 23:00:00,
2013-12-30 18:05:00,38.3,30.0,29.87,SE,135,3.1,4.5,63,0.00,,,0.00,fowsr,2013-12-30 23:05:00,
2013-12-30 18:10:00,38.1,29.3,29.88,SE,135,2.2,6.0,61,0.00,,,0.00,fowsr,2013-12-30 23:10:00,
2013-12-30 18:15:00,37.9,29.4,29.88,South,180,3.1,6.0,62,0.00,,,0.00,fowsr,2013-12-30 23:15:00,
2013-12-30 18:20:00,37.9,29.1,29.88,East,90,4.5,8.3,61,0.00,,,0.00,fowsr,2013-12-30 23:20:00,
2013-12-30 18:25:00,37.8,28.6,29.87,South,180,3.1,4.5,60,0.00,,,0.00,fowsr,2013-12-30 23:25:00,
2013-12-30 18:30:00,37.8,28.6,29.87,NW,315,3.1,7.6,60,0.00,,,0.00,fowsr,2013-12-30 23:30:00,
2013-12-30 18:35:00,37.6,28.7,29.88,East,90,2.2,3.8,61,0.00,,,0.00,fowsr,2013-12-30 23:35:00,
2013-12-30 18:40:00,37.6,28.7,29.88,East,90,3.1,4.5,61,0.00,,,0.00,fowsr,2013-12-30 23:40:00,
2013-12-30 18:45:00,37.6,28.5,29.88,SE,135,3.1,6.0,60,0.00,,,0.00,fowsr,2013-12-30 23:45:00,
2013-12-30 18:50:00,37.4,28.0,29.88,South,180,1.6,3.8,59,0.00,,,0.00,fowsr,2013-12-30 23:50:00,
2013-12-30 19:00:00,37.2,26.6,29.88,ENE,67,3.1,7.6,55,0.00,,,0.00,fowsr,2013-12-31 00:00:00,
2013-12-30 19:05:00,37.0,26.5,29.89,South,180,2.2,5.4,55,0.00,,,0.00,fowsr,2013-12-31 00:05:00,
2013-12-30 19:15:00,36.9,26.3,29.89,North,0,3.8,6.0,55,0.00,,,0.00,fowsr,2013-12-31 00:15:00,
2013-12-30 19:20:00,36.9,26.9,29.89,South,180,3.8,6.0,57,0.00,,,0.00,fowsr,2013-12-31 00:20:00,
2013-12-30 19:25:00,36.7,26.7,29.89,South,180,1.6,3.8,57,0.00,,,0.00,fowsr,2013-12-31 00:25:00,
2013-12-30 19:30:00,36.7,27.0,29.89,South,180,2.2,3.1,58,0.00,,,0.00,fowsr,2013-12-31 00:30:00,
2013-12-30 19:35:00,36.5,27.2,29.89,South,180,2.2,6.0,59,0.00,,,0.00,fowsr,2013-12-31 00:35:00,
2013-12-30 19:40:00,36.5,26.9,29.89,East,90,2.2,4.5,58,0.00,,,0.00,fowsr,2013-12-31 00:40:00,
2013-12-30 19:45:00,36.3,26.4,29.89,SW,225,3.1,7.6,57,0.00,,,0.00,fowsr,2013-12-31 00:45:00,
2013-12-30 19:50:00,36.3,26.7,29.89,SW,225,1.6,4.5,58,0.00,,,0.00,fowsr,2013-12-31 00:50:00,
2013-12-30 19:55:00,36.3,26.7,29.90,SE,135,1.6,2.2,58,0.00,,,0.00,fowsr,2013-12-31 00:55:00,
2013-12-30 20:00:00,36.1,26.5,29.89,SW,225,3.8,5.4,58,0.00,,,0.00,fowsr,2013-12-31 01:00:00,
2013-12-30 20:05:00,36.1,26.8,29.89,SE,135,3.1,7.6,59,0.00,,,0.00,fowsr,2013-12-31 01:05:00,
2013-12-30 20:10:00,36.1,26.5,29.90,SE,135,3.8,6.9,58,0.00,,,0.00,fowsr,2013-12-31 01:10:00,
2013-12-30 20:15:00,36.0,26.4,29.90,South,180,3.1,6.9,58,0.00,,,0.00,fowsr,2013-12-31 01:15:00,
2013-12-30 20:20:00,36.0,26.4,29.90,SW,225,2.2,6.9,58,0.00,,,0.00,fowsr,2013-12-31 01:20:00,
2013-12-30 20:25:00,36.0,26.4,29.90,East,90,2.2,6.9,58,0.00,,,0.00,fowsr,2013-12-31 01:25:00,
2013-12-30 20:30:00,35.8,26.2,29.91,SW,225,6.0,8.3,58,0.00,,,0.00,fowsr,2013-12-31 01:30:00,
2013-12-30 20:35:00,35.8,25.9,29.91,South,180,4.5,7.6,57,0.00,,,0.00,fowsr,2013-12-31 01:35:00,
2013-12-30 20:40:00,35.8,25.6,29.65,WSW,247,1.6,3.8,56,0.00,,,0.00,fowsr,2013-12-31 01:40:00,
2013-12-30 20:45:00,35.8,25.9,29.92,SSW,202,1.6,2.2,57,0.00,,,0.00,fowsr,2013-12-31 01:45:00,
2013-12-30 20:50:00,35.6,25.4,29.92,SW,225,2.2,6.0,56,0.00,,,0.00,fowsr,2013-12-31 01:50:00,
2013-12-30 20:55:00,35.6,25.4,29.91,SW,225,1.6,3.8,56,0.00,,,0.00,fowsr,2013-12-31 01:55:00,
2013-12-30 21:05:00,35.6,24.5,29.92,South,180,5.4,7.6,53,0.00,,,0.00,fowsr,2013-12-31 02:05:00,
2013-12-30 21:10:00,35.8,24.7,29.92,NW,315,2.2,6.0,53,0.00,,,0.00,fowsr,2013-12-31 02:10:00,
2013-12-30 21:15:00,35.8,25.3,29.92,SE,135,5.4,9.2,55,0.00,,,0.00,fowsr,2013-12-31 02:15:00,
2013-12-30 21:20:00,35.8,25.6,29.92,South,180,5.4,7.6,56,0.00,,,0.00,fowsr,2013-12-31 02:20:00,
2013-12-30 21:25:00,35.8,25.3,29.93,SW,225,3.1,7.6,55,0.00,,,0.00,fowsr,2013-12-31 02:25:00,
2013-12-30 21:30:00,35.6,25.1,29.93,West,270,3.1,4.5,55,0.00,,,0.00,fowsr,2013-12-31 02:30:00,
2013-12-30 21:35:00,35.6,25.1,29.93,South,180,2.2,5.4,55,0.00,,,0.00,fowsr,2013-12-31 02:35:00,
2013-12-30 21:40:00,35.6,25.1,29.93,SW,225,3.1,6.0,55,0.00,,,0.00,fowsr,2013-12-31 02:40:00,
2013-12-30 21:45:00,35.6,25.1,29.93,South,180,3.1,5.4,55,0.00,,,0.00,fowsr,2013-12-31 02:45:00,
2013-12-30 21:50:00,35.4,25.6,29.93,East,90,3.8,8.3,57,0.00,,,0.00,fowsr,2013-12-31 02:50:00,
2013-12-30 21:55:00,35.4,25.6,29.92,South,180,6.9,9.8,57,0.00,,,0.00,fowsr,2013-12-31 02:55:00,
2013-12-30 22:00:00,35.4,25.6,29.92,SE,135,5.4,7.6,57,0.00,,,0.00,fowsr,2013-12-31 03:00:00,
2013-12-30 22:05:00,35.4,25.6,29.92,SE,135,3.8,7.6,57,0.00,,,0.00,fowsr,2013-12-31 03:05:00,
2013-12-30 22:10:00,35.2,25.1,29.92,South,180,6.0,8.3,56,0.00,,,0.00,fowsr,2013-12-31 03:10:00,
2013-12-30 22:15:00,35.2,25.4,29.92,SSW,202,3.8,6.0,57,0.00,,,0.00,fowsr,2013-12-31 03:15:00,
2013-12-30 22:20:00,35.1,25.2,29.92,South,180,6.0,7.6,57,0.00,,,0.00,fowsr,2013-12-31 03:20:00,
2013-12-30 22:25:00,35.1,25.2,29.92,SE,135,3.1,4.5,57,0.00,,,0.00,fowsr,2013-12-31 03:25:00,
2013-12-30 22:30:00,35.1,24.9,29.92,SE,135,3.1,4.5,56,0.00,,,0.00,fowsr,2013-12-31 03:30:00,
2013-12-30 22:35:00,35.1,24.6,29.93,SW,225,3.8,6.9,55,0.00,,,0.00,fowsr,2013-12-31 03:35:00,
2013-12-30 22:40:00,35.1,24.9,29.93,NE,45,1.6,3.1,56,0.00,,,0.00,fowsr,2013-12-31 03:40:00,
2013-12-30 22:45:00,35.2,25.1,29.92,South,180,2.2,5.4,56,0.00,,,0.00,fowsr,2013-12-31 03:45:00,
2013-12-30 22:50:00,35.2,25.4,29.93,East,90,0.7,2.2,57,0.00,,,0.00,fowsr,2013-12-31 03:50:00,
2013-12-30 22:55:00,35.2,25.4,29.92,NNE,22,0.7,1.6,57,0.00,,,0.00,fowsr,2013-12-31 03:55:00,
2013-12-30 23:00:00,35.2,25.1,29.92,NE,45,3.8,6.9,56,0.00,,,0.00,fowsr,2013-12-31 04:00:00,
2013-12-30 23:05:00,35.1,24.9,29.92,South,180,3.1,4.5,56,0.00,,,0.00,fowsr,2013-12-31 04:05:00,
2013-12-30 23:10:00,35.1,24.9,29.92,SW,225,0.7,3.1,56,0.00,,,0.00,fowsr,2013-12-31 04:10:00,
2013-12-30 23:15:00,35.1,24.9,29.93,South,180,3.1,5.4,56,0.00,,,0.00,fowsr,2013-12-31 04:15:00,
2013-12-30 23:20:00,34.9,24.5,29.93,NW,315,3.1,7.6,55,0.00,,,0.00,fowsr,2013-12-31 04:20:00,
2013-12-30 23:25:00,34.9,24.5,29.93,East,90,1.6,3.8,55,0.00,,,0.00,fowsr,2013-12-31 04:25:00,
2013-12-30 23:35:00,34.7,24.6,29.93,East,90,2.2,4.5,56,0.00,,,0.00,fowsr,2013-12-31 04:35:00,
2013-12-30 23:40:00,34.5,24.1,29.92,SW,225,3.1,5.4,55,0.00,,,0.00,fowsr,2013-12-31 04:40:00,
2013-12-30 23:45:00,34.3,24.3,29.93,South,180,1.6,3.8,56,0.00,,,0.00,fowsr,2013-12-31 04:45:00,
2013-12-30 23:50:00,34.3,24.3,29.92,South,180,3.1,3.8,56,0.00,,,0.00,fowsr,2013-12-31 04:50:00,
2013-12-30 23:55:00,34.2,23.8,29.92,South,180,2.2,4.5,55,0.00,,,0.00,fowsr,2013-12-31 04:55:00,